createdAt,value
2018-07-21T00:02:02.434Z,20.50
2018-07-21T00:04:29.861Z,20.40
2018-07-21T00:06:57.904Z,20.40
2018-07-21T00:09:25.962Z,20.40
2018-07-21T00:11:54.026Z,20.30
2018-07-21T00:14:22.066Z,20.30
2018-07-21T00:16:50.162Z,20.20
2018-07-21T00:19:18.231Z,20.20
2018-07-21T00:24:14.138Z,20.10
2018-07-21T00:26:48.070Z,20.10
2018-07-21T00:29:16.693Z,20.10
2018-07-21T00:31:44.760Z,20.00
2018-07-21T00:34:12.798Z,19.90
2018-07-21T00:36:41.072Z,19.90
2018-07-21T00:39:12.185Z,20.00
2018-07-21T00:41:40.243Z,19.90
2018-07-21T00:44:08.293Z,19.90
2018-07-21T00:46:36.558Z,19.90
2018-07-21T00:49:04.597Z,19.90
2018-07-21T00:51:32.658Z,19.90
2018-07-21T00:54:00.705Z,19.80
2018-07-21T00:56:28.745Z,19.80
2018-07-21T00:58:56.782Z,19.80
2018-07-21T01:03:52.694Z,19.80
2018-07-21T01:06:20.750Z,19.80
2018-07-21T01:08:48.818Z,19.80
2018-07-21T01:11:16.903Z,19.70
2018-07-21T01:13:44.942Z,19.70
2018-07-21T01:16:12.982Z,19.70
2018-07-21T01:18:41.037Z,19.70
2018-07-21T01:21:09.082Z,19.60
2018-07-21T01:26:04.980Z,19.70
2018-07-21T01:28:33.062Z,19.70
2018-07-21T01:31:01.113Z,19.80
2018-07-21T01:33:29.158Z,19.70
2018-07-21T01:38:25.022Z,19.70
2018-07-21T01:40:53.114Z,19.80
2018-07-21T01:45:49.021Z,19.80
2018-07-21T01:50:43.602Z,19.90
2018-07-21T01:53:10.977Z,19.90
2018-07-21T01:55:39.033Z,19.90
2018-07-21T01:58:07.065Z,19.90
2018-07-21T02:00:35.128Z,19.80
2018-07-21T02:03:03.186Z,19.80
2018-07-21T02:05:31.217Z,19.80
2018-07-21T02:07:59.261Z,19.80
2018-07-21T02:10:26.669Z,19.80
2018-07-21T02:12:54.745Z,19.80
2018-07-21T02:15:22.805Z,19.70
2018-07-21T02:17:50.910Z,19.70
2018-07-21T02:20:19.019Z,19.60
2018-07-21T02:22:46.436Z,19.60
2018-07-21T02:25:13.793Z,19.70
2018-07-21T02:27:41.856Z,19.60
2018-07-21T02:30:09.942Z,19.50
2018-07-21T02:35:05.834Z,19.40
2018-07-21T02:40:01.702Z,19.40
2018-07-21T02:42:29.754Z,19.40
2018-07-21T02:44:57.793Z,19.50
2018-07-21T02:47:25.850Z,19.40
2018-07-21T02:49:53.242Z,19.50
2018-07-21T02:52:20.629Z,19.50
2018-07-21T02:54:48.018Z,19.60
2018-07-21T02:57:15.395Z,19.60
2018-07-21T02:59:42.805Z,19.60
2018-07-21T03:02:10.197Z,19.70
2018-07-21T03:04:37.593Z,19.70
2018-07-21T03:09:32.142Z,19.70
2018-07-21T03:11:59.603Z,19.70
2018-07-21T03:14:26.981Z,19.70
2018-07-21T03:16:54.390Z,19.70
2018-07-21T03:19:21.803Z,19.70
2018-07-21T03:21:49.205Z,19.60
2018-07-21T03:24:16.623Z,19.60
2018-07-21T03:26:44.009Z,19.60
2018-07-21T03:29:11.421Z,19.60
2018-07-21T03:31:38.804Z,19.60
2018-07-21T03:34:06.206Z,19.60
2018-07-21T03:36:33.609Z,19.50
2018-07-21T03:39:01.639Z,19.50
2018-07-21T03:41:29.692Z,19.40
2018-07-21T03:43:57.730Z,19.30
2018-07-21T03:46:25.774Z,19.20
2018-07-21T03:48:53.838Z,19.20
2018-07-21T03:51:21.890Z,19.20
2018-07-21T03:53:49.966Z,19.20
2018-07-21T03:56:18.018Z,19.10
2018-07-21T03:58:46.090Z,19.10
2018-07-21T04:01:14.144Z,19.20
2018-07-21T04:03:42.249Z,19.20
2018-07-21T04:08:38.114Z,19.30
2018-07-21T04:11:06.170Z,19.30
2018-07-21T04:13:34.226Z,19.20
2018-07-21T04:16:02.282Z,19.20
2018-07-21T04:18:29.679Z,19.30
2018-07-21T04:23:24.228Z,19.30
2018-07-21T04:28:20.125Z,19.20
2018-07-21T04:30:48.186Z,19.20
2018-07-21T04:33:16.241Z,19.20
2018-07-21T04:35:44.298Z,19.30
2018-07-21T04:38:12.342Z,19.30
2018-07-21T04:40:40.374Z,19.20
2018-07-21T04:43:08.438Z,19.20
2018-07-21T04:45:36.491Z,19.10
2018-07-21T04:48:05.004Z,19.00
2018-07-21T04:50:33.038Z,19.00
2018-07-21T04:53:01.082Z,19.00
2018-07-21T04:55:29.151Z,19.00
2018-07-21T04:57:57.199Z,19.10
2018-07-21T05:00:25.229Z,19.10
2018-07-21T05:02:53.278Z,19.10
2018-07-21T05:05:21.318Z,19.10
2018-07-21T05:07:49.361Z,19.00
2018-07-21T05:10:17.413Z,19.10
2018-07-21T05:12:45.461Z,19.10
2018-07-21T05:15:13.518Z,19.10
2018-07-21T05:20:08.801Z,19.10
2018-07-21T05:22:36.797Z,19.10
2018-07-21T05:25:05.369Z,19.10
2018-07-21T05:27:33.410Z,19.10
2018-07-21T05:30:01.477Z,19.00
2018-07-21T05:32:29.514Z,18.90
2018-07-21T05:34:57.562Z,18.90
2018-07-21T05:39:52.777Z,19.00
2018-07-21T05:42:20.814Z,19.00
2018-07-21T05:44:48.193Z,19.00
2018-07-21T05:47:16.254Z,18.90
2018-07-21T05:49:44.300Z,18.90
2018-07-21T05:52:12.342Z,18.90
2018-07-21T05:54:40.421Z,18.90
2018-07-21T05:57:08.422Z,18.90
2018-07-21T05:59:36.463Z,18.80
2018-07-21T06:02:04.514Z,18.80
2018-07-21T06:04:32.531Z,18.80
2018-07-21T06:07:00.582Z,18.70
2018-07-21T06:09:28.620Z,18.70
2018-07-21T06:11:56.666Z,18.70
2018-07-21T06:14:24.042Z,18.70
2018-07-21T06:16:52.109Z,18.70
2018-07-21T06:19:20.150Z,18.70
2018-07-21T06:21:48.227Z,18.80
2018-07-21T06:24:16.277Z,18.80
2018-07-21T06:26:43.682Z,18.90
2018-07-21T06:29:11.053Z,18.90
2018-07-21T06:31:38.481Z,18.90
2018-07-21T06:34:05.909Z,19.00
2018-07-21T06:36:33.354Z,19.00
2018-07-21T06:39:00.743Z,19.00
2018-07-21T06:41:28.132Z,19.00
2018-07-21T06:43:57.221Z,19.00
2018-07-21T06:46:25.209Z,19.10
2018-07-21T06:48:53.254Z,19.20
2018-07-21T06:51:21.295Z,19.20
2018-07-21T06:53:49.333Z,19.30
2018-07-21T06:56:17.382Z,19.40
2018-07-21T06:58:45.434Z,19.40
2018-07-21T07:01:13.485Z,19.50
2018-07-21T07:08:37.218Z,19.60
2018-07-21T07:11:05.270Z,19.70
2018-07-21T07:13:33.314Z,19.80
2018-07-21T07:16:01.357Z,19.80
2018-07-21T07:18:29.402Z,19.80
2018-07-21T07:20:57.491Z,19.80
2018-07-21T07:23:24.873Z,19.80
2018-07-21T07:25:52.269Z,19.60
2018-07-21T07:28:19.660Z,19.30
2018-07-21T07:30:47.704Z,19.20
2018-07-21T07:33:15.153Z,19.20
2018-07-21T07:35:43.201Z,19.40
2018-07-21T07:38:11.410Z,19.60
2018-07-21T07:40:39.473Z,19.80
2018-07-21T07:43:07.465Z,20.00
2018-07-21T07:45:35.510Z,20.10
2018-07-21T07:50:30.872Z,20.20
2018-07-21T07:52:58.526Z,20.30
2018-07-21T07:57:57.655Z,20.50
2018-07-21T08:00:25.151Z,20.70
2018-07-21T08:02:53.245Z,20.60
2018-07-21T08:05:20.630Z,20.70
2018-07-21T08:07:48.050Z,20.80
2018-07-21T08:10:15.462Z,20.80
2018-07-21T08:15:12.426Z,20.90
2018-07-21T08:17:40.563Z,21.00
2018-07-21T08:20:08.608Z,21.10
2018-07-21T08:22:36.684Z,21.10
2018-07-21T08:25:04.725Z,21.10
2018-07-21T08:27:32.845Z,21.00
2018-07-21T08:30:00.887Z,21.10
2018-07-21T08:32:28.930Z,21.10
2018-07-21T08:34:56.977Z,21.10
2018-07-21T08:37:25.009Z,21.00
2018-07-21T08:39:53.062Z,20.90
2018-07-21T08:42:21.097Z,20.90
2018-07-21T08:44:49.186Z,20.80
2018-07-21T08:47:17.229Z,20.80
2018-07-21T08:49:45.284Z,20.70
2018-07-21T08:52:13.357Z,20.60
2018-07-21T08:54:41.037Z,20.60
2018-07-21T08:57:09.848Z,20.40
2018-07-21T08:59:37.907Z,20.40
2018-07-21T09:02:06.251Z,20.10
2018-07-21T09:04:34.290Z,20.00
2018-07-21T09:07:02.351Z,20.00
2018-07-21T09:09:30.402Z,19.90
2018-07-21T09:11:58.443Z,20.00
2018-07-21T09:14:26.490Z,19.90
2018-07-21T09:16:54.526Z,19.90
2018-07-21T09:19:22.563Z,19.80
2018-07-21T09:24:17.177Z,19.30
2018-07-21T09:26:44.592Z,19.00
2018-07-21T09:31:39.217Z,18.80
2018-07-21T09:34:06.625Z,18.70
2018-07-21T09:36:33.973Z,18.70
2018-07-21T09:39:01.362Z,18.60
2018-07-21T09:41:28.737Z,18.70
2018-07-21T09:43:56.170Z,18.70
2018-07-21T09:46:24.201Z,18.60
2018-07-21T09:48:52.229Z,18.70
2018-07-21T09:51:20.354Z,18.70
2018-07-21T09:53:48.398Z,18.80
2018-07-21T09:56:15.808Z,18.80
2018-07-21T09:58:43.169Z,18.60
2018-07-21T10:03:37.733Z,18.60
2018-07-21T10:06:05.116Z,18.50
2018-07-21T10:08:33.153Z,18.50
2018-07-21T10:11:01.202Z,18.50
2018-07-21T10:15:56.410Z,18.50
2018-07-21T10:18:24.440Z,18.40
2018-07-21T10:20:51.832Z,18.30
2018-07-21T10:23:19.206Z,18.30
2018-07-21T10:25:52.818Z,18.30
2018-07-21T10:28:26.284Z,18.40
2018-07-21T10:30:54.299Z,18.30
2018-07-21T10:33:21.761Z,18.20
2018-07-21T10:35:49.114Z,18.20
2018-07-21T10:38:17.358Z,18.20
2018-07-21T10:40:45.410Z,18.20
2018-07-21T10:43:13.451Z,18.20
2018-07-21T10:45:41.499Z,18.00
2018-07-21T10:48:08.902Z,18.00
2018-07-21T10:53:04.217Z,18.00
2018-07-21T10:55:32.271Z,17.90
2018-07-21T10:57:59.696Z,18.00
2018-07-21T11:02:55.749Z,18.00
2018-07-21T11:05:23.866Z,18.00
2018-07-21T11:07:51.313Z,17.90
2018-07-21T11:12:45.926Z,18.00
2018-07-21T11:15:14.057Z,18.00
2018-07-21T11:17:42.126Z,18.10
2018-07-21T11:20:09.520Z,18.10
2018-07-21T11:22:37.758Z,18.00
2018-07-21T11:25:05.679Z,18.10
2018-07-21T11:27:33.750Z,18.10
2018-07-21T11:30:01.769Z,18.10
2018-07-21T11:32:29.817Z,18.10
2018-07-21T11:34:57.866Z,18.10
2018-07-21T11:39:53.751Z,18.30
2018-07-21T11:42:21.804Z,18.30
2018-07-21T11:44:49.825Z,18.10
2018-07-21T11:47:17.865Z,18.20
2018-07-21T11:49:45.943Z,18.20
2018-07-21T11:52:13.985Z,18.10
2018-07-21T11:54:41.358Z,18.20
2018-07-21T11:57:09.754Z,18.20
2018-07-21T12:02:05.725Z,18.30
2018-07-21T12:04:33.758Z,18.30
2018-07-21T12:07:01.827Z,18.30
2018-07-21T12:09:29.833Z,18.30
2018-07-21T12:11:57.941Z,18.30
2018-07-21T12:14:26.056Z,18.30
2018-07-21T12:16:54.110Z,18.30
2018-07-21T12:19:22.177Z,18.40
2018-07-21T12:21:50.259Z,18.50
2018-07-21T12:24:18.302Z,18.40
2018-07-21T12:26:46.437Z,18.40
2018-07-21T12:29:14.527Z,18.50
2018-07-21T12:31:42.658Z,18.50
2018-07-21T12:34:10.765Z,18.70
2018-07-21T12:36:38.743Z,18.80
2018-07-21T12:39:07.894Z,18.80
2018-07-21T12:41:35.937Z,18.90
2018-07-21T12:44:04.042Z,18.80
2018-07-21T12:46:32.110Z,18.90
2018-07-21T12:51:28.081Z,19.20
2018-07-21T12:53:56.146Z,19.00
2018-07-21T12:56:24.190Z,19.00
2018-07-21T12:58:52.250Z,19.00
2018-07-21T13:01:20.331Z,19.20
2018-07-21T13:03:48.433Z,19.30
2018-07-21T13:06:16.477Z,19.30
2018-07-21T13:08:44.535Z,19.60
2018-07-21T13:11:12.570Z,19.60
2018-07-21T13:16:08.506Z,19.40
2018-07-21T13:18:36.563Z,19.40
2018-07-21T13:21:04.593Z,19.40
2018-07-21T13:23:31.993Z,19.40
2018-07-21T13:26:00.035Z,19.50
2018-07-21T13:28:28.077Z,19.70
2018-07-21T13:30:56.139Z,19.80
2018-07-21T13:33:24.192Z,20.00
2018-07-21T13:35:52.238Z,20.10
2018-07-21T13:38:20.269Z,20.20
2018-07-21T13:43:16.142Z,20.60
2018-07-21T13:45:44.186Z,20.80
2018-07-21T13:48:12.231Z,21.00
2018-07-21T13:50:40.290Z,21.10
2018-07-21T13:53:08.662Z,21.00
2018-07-21T13:55:36.698Z,21.00
2018-07-21T13:58:04.919Z,20.90
2018-07-21T14:03:00.806Z,21.10
2018-07-21T14:05:29.045Z,21.20
2018-07-21T14:07:57.084Z,21.20
2018-07-21T14:10:25.775Z,21.20
2018-07-21T14:12:53.854Z,21.20
2018-07-21T14:15:21.902Z,21.20
2018-07-21T14:17:49.954Z,21.40
2018-07-21T14:20:18.615Z,21.60
2018-07-21T14:22:46.655Z,21.70
2018-07-21T14:25:14.706Z,21.50
2018-07-21T14:27:42.737Z,21.60
2018-07-21T14:30:10.791Z,21.90
2018-07-21T14:32:38.171Z,22.40
2018-07-21T14:35:05.758Z,23.10
2018-07-21T14:40:00.308Z,23.90
2018-07-21T14:42:27.696Z,24.40
2018-07-21T14:44:55.084Z,24.60
2018-07-21T14:47:22.456Z,24.90
2018-07-21T14:49:49.828Z,25.00
2018-07-21T14:52:17.253Z,24.60
2018-07-21T14:54:44.659Z,24.50
2018-07-21T14:57:12.021Z,24.10
2018-07-21T15:02:06.710Z,24.00
2018-07-21T15:04:34.098Z,23.80
2018-07-21T15:07:01.498Z,23.50
2018-07-21T15:09:29.550Z,23.40
2018-07-21T15:11:57.009Z,23.80
2018-07-21T15:14:25.077Z,24.40
2018-07-21T15:16:52.449Z,24.70
2018-07-21T15:19:20.501Z,24.50
2018-07-21T15:24:16.483Z,23.50
2018-07-21T15:26:43.865Z,23.20
2018-07-21T15:29:11.897Z,23.30
2018-07-21T15:31:39.959Z,23.20
2018-07-21T15:34:08.010Z,23.00
2018-07-21T15:36:36.051Z,22.80
2018-07-21T15:39:05.886Z,22.60
2018-07-21T15:41:33.874Z,22.50
2018-07-21T15:44:01.910Z,22.40
2018-07-21T15:46:29.977Z,22.30
2018-07-21T15:48:58.026Z,22.40
2018-07-21T15:51:26.071Z,22.50
2018-07-21T15:56:21.941Z,22.40
2018-07-21T15:58:49.994Z,22.40
2018-07-21T16:01:18.022Z,22.40
2018-07-21T16:03:46.074Z,22.20
2018-07-21T16:06:14.154Z,22.30
2018-07-21T16:08:42.303Z,22.40
2018-07-21T16:11:10.297Z,22.50
2018-07-21T16:13:38.333Z,22.30
2018-07-21T16:16:06.452Z,22.30
2018-07-21T16:18:34.493Z,22.40
2018-07-21T16:23:30.358Z,22.00
2018-07-21T16:25:58.398Z,22.00
2018-07-21T16:28:26.447Z,21.80
2018-07-21T16:30:54.501Z,21.80
2018-07-21T16:33:22.582Z,21.60
2018-07-21T16:35:50.598Z,21.40
2018-07-21T16:38:18.898Z,21.40
2018-07-21T16:40:47.013Z,21.40
2018-07-21T16:43:15.054Z,21.20
2018-07-21T16:48:10.953Z,20.90
2018-07-21T16:50:39.077Z,20.80
2018-07-21T16:53:07.139Z,20.60
2018-07-21T16:55:35.195Z,20.50
2018-07-21T16:58:03.272Z,20.40
2018-07-21T17:00:31.321Z,20.40
2018-07-21T17:02:59.386Z,20.20
2018-07-21T17:05:27.447Z,20.10
2018-07-21T17:07:55.529Z,20.00
2018-07-21T17:10:23.602Z,20.00
2018-07-21T17:12:51.951Z,19.90
2018-07-21T17:15:19.958Z,19.80
2018-07-21T17:17:48.955Z,19.80
2018-07-21T17:20:17.068Z,19.50
2018-07-21T17:22:45.202Z,19.40
2018-07-21T17:25:12.591Z,19.30
2018-07-21T17:27:39.969Z,19.20
2018-07-21T17:30:07.391Z,18.90
2018-07-21T17:32:34.760Z,18.90
2018-07-21T17:35:02.809Z,18.80
2018-07-21T17:37:30.853Z,18.80
2018-07-21T17:39:58.942Z,18.70
2018-07-21T17:42:27.093Z,18.70
2018-07-21T17:44:54.547Z,18.70
2018-07-21T17:47:21.933Z,18.70
2018-07-21T17:49:49.998Z,18.60
2018-07-21T17:52:17.467Z,18.50
2018-07-21T17:54:44.917Z,18.50
2018-07-21T17:57:12.966Z,18.50
2018-07-21T17:59:40.377Z,18.50
2018-07-21T18:02:08.410Z,18.50
2018-07-21T18:04:36.582Z,18.60
2018-07-21T18:07:04.655Z,18.60
2018-07-21T18:09:32.699Z,18.60
2018-07-21T18:12:00.738Z,18.70
2018-07-21T18:14:28.774Z,18.70
2018-07-21T18:16:56.821Z,18.70
2018-07-21T18:19:24.882Z,18.70
2018-07-21T18:21:52.927Z,18.60
2018-07-21T18:24:20.969Z,18.70
2018-07-21T18:26:49.014Z,18.60
2018-07-21T18:29:16.433Z,18.70
2018-07-21T18:31:44.501Z,18.60
2018-07-21T18:34:11.846Z,18.70
2018-07-21T18:39:07.372Z,18.50
2018-07-21T18:41:34.782Z,18.50
2018-07-21T18:44:02.857Z,18.50
2018-07-21T18:46:30.269Z,18.50
2018-07-21T18:53:52.713Z,18.40
2018-07-21T18:58:47.938Z,18.30
2018-07-21T19:01:16.015Z,18.30
2018-07-21T19:03:44.089Z,18.20
2018-07-21T19:06:11.465Z,18.20
2018-07-21T19:08:44.429Z,18.10
2018-07-21T19:13:39.001Z,18.10
2018-07-21T19:18:39.309Z,18.10
2018-07-21T19:21:12.289Z,18.10
2018-07-21T19:23:39.677Z,18.10
2018-07-21T19:26:12.597Z,18.20
2018-07-21T19:31:08.474Z,18.30
2018-07-21T19:33:36.531Z,18.40
2018-07-21T19:36:04.570Z,18.50
2018-07-21T19:38:32.610Z,18.40
2018-07-21T19:42:04.126Z,18.30
2018-07-21T19:44:32.158Z,18.40
2018-07-21T19:47:00.391Z,18.50
2018-07-21T19:49:28.438Z,18.50
2018-07-21T19:51:56.478Z,18.70
2018-07-21T19:54:24.522Z,18.70
2018-07-21T19:56:52.676Z,18.70
2018-07-21T19:59:20.654Z,18.80
2018-07-21T20:01:48.698Z,18.70
2018-07-21T20:04:16.742Z,18.70
2018-07-21T20:06:44.879Z,18.70
2018-07-21T20:09:12.916Z,18.70
2018-07-21T20:11:41.554Z,18.70
2018-07-21T20:14:09.607Z,18.70
2018-07-21T20:16:38.078Z,18.70
2018-07-21T20:19:06.142Z,18.70
2018-07-21T20:21:34.275Z,18.70
2018-07-21T20:24:02.229Z,18.70
2018-07-21T20:26:30.261Z,18.70
2018-07-21T20:28:58.319Z,18.70
2018-07-21T20:31:26.354Z,18.70
2018-07-21T20:36:22.418Z,18.70
2018-07-21T20:38:50.598Z,18.70
2018-07-21T20:41:18.650Z,18.60
2018-07-21T20:43:46.779Z,18.60
2018-07-21T20:46:14.774Z,18.50
2018-07-21T20:51:10.644Z,18.30
2018-07-21T20:53:38.673Z,18.30
2018-07-21T20:56:06.710Z,18.20
2018-07-21T20:58:34.774Z,18.10
2018-07-21T21:01:02.818Z,18.10
2018-07-21T21:08:26.674Z,18.00
2018-07-21T21:10:54.717Z,18.00
2018-07-21T21:13:22.774Z,18.00
2018-07-21T21:15:50.838Z,17.90
2018-07-21T21:20:46.734Z,18.00
2018-07-21T21:23:14.789Z,18.00
2018-07-21T21:25:42.850Z,18.00
2018-07-21T21:28:10.906Z,17.90
2018-07-21T21:30:38.954Z,18.00
2018-07-21T21:33:07.014Z,17.90
2018-07-21T21:35:35.098Z,18.00
2018-07-21T21:38:03.146Z,18.00
2018-07-21T21:42:59.022Z,18.10
2018-07-21T21:45:27.180Z,18.10
2018-07-21T21:47:55.229Z,18.00
2018-07-21T21:50:23.281Z,18.00
2018-07-21T21:52:51.326Z,18.00
2018-07-21T21:55:19.430Z,18.00
2018-07-21T21:57:47.486Z,17.90
2018-07-21T22:02:43.374Z,17.80
2018-07-21T22:05:11.978Z,17.80
2018-07-21T22:07:40.034Z,17.70
2018-07-21T22:10:08.083Z,17.70
2018-07-21T22:20:06.407Z,17.90
2018-07-21T22:22:34.447Z,17.90
2018-07-21T22:25:02.526Z,17.80
2018-07-21T22:27:30.579Z,17.80
2018-07-21T22:29:58.618Z,17.80
2018-07-21T22:32:26.677Z,17.80
2018-07-21T22:34:54.728Z,17.90
2018-07-21T22:37:22.773Z,17.90
2018-07-21T22:39:50.850Z,17.90
2018-07-21T22:42:18.902Z,17.90
2018-07-21T22:44:46.965Z,17.90
2018-07-21T22:47:15.002Z,17.90
2018-07-21T22:49:43.053Z,17.90
2018-07-21T22:52:11.118Z,17.80
2018-07-21T22:54:39.166Z,17.70
2018-07-21T22:57:07.228Z,17.80
2018-07-21T22:59:35.290Z,17.70
2018-07-21T23:02:03.338Z,17.80
2018-07-21T23:04:31.394Z,17.80
2018-07-21T23:06:59.438Z,17.80
2018-07-21T23:09:27.497Z,17.80
2018-07-21T23:11:55.540Z,17.80
2018-07-21T23:14:23.592Z,17.90
2018-07-21T23:16:51.642Z,17.90
2018-07-21T23:19:19.707Z,17.80
2018-07-21T23:21:47.759Z,17.80
2018-07-21T23:24:15.801Z,17.80
2018-07-21T23:29:11.669Z,17.80
2018-07-21T23:31:39.722Z,17.90
2018-07-21T23:34:07.782Z,17.90
2018-07-21T23:36:35.822Z,17.90
2018-07-21T23:39:05.838Z,18.00
2018-07-21T23:41:33.885Z,18.00
2018-07-21T23:44:01.982Z,17.90
2018-07-21T23:46:30.039Z,17.90
2018-07-21T23:48:58.087Z,17.90
2018-07-21T23:51:26.126Z,17.90
2018-07-21T23:53:54.173Z,17.90
2018-07-21T23:56:22.214Z,17.90
2018-07-21T23:58:50.258Z,17.90
